sensor_id;sensor_type;location;lat;lon;timestamp;P1;durP1;ratioP1;P2;durP2;ratioP2
51558;SDS011;61650;48.882;2.092;2022-12-18T00:01:23;35.78;;;18.00;;
51558;SDS011;61650;48.882;2.092;2022-12-18T00:03:59;30.70;;;17.20;;
51558;SDS011;61650;48.882;2.092;2022-12-18T00:06:26;35.70;;;19.02;;
51558;SDS011;61650;48.882;2.092;2022-12-18T00:08:54;30.80;;;18.30;;
51558;SDS011;61650;48.882;2.092;2022-12-18T00:11:22;37.35;;;18.85;;
51558;SDS011;61650;48.882;2.092;2022-12-18T00:13:50;35.88;;;19.02;;
51558;SDS011;61650;48.882;2.092;2022-12-18T00:16:18;34.72;;;17.70;;
51558;SDS011;61650;48.882;2.092;2022-12-18T00:18:45;36.42;;;19.13;;
51558;SDS011;61650;48.882;2.092;2022-12-18T00:21:12;30.63;;;17.60;;
51558;SDS011;61650;48.882;2.092;2022-12-18T00:23:40;31.25;;;16.55;;
51558;SDS011;61650;48.882;2.092;2022-12-18T00:26:09;32.22;;;16.90;;
51558;SDS011;61650;48.882;2.092;2022-12-18T00:28:37;31.13;;;17.52;;
51558;SDS011;61650;48.882;2.092;2022-12-18T00:31:04;36.27;;;17.30;;
51558;SDS011;61650;48.882;2.092;2022-12-18T00:33:31;33.72;;;17.00;;
51558;SDS011;61650;48.882;2.092;2022-12-18T00:36:04;29.10;;;18.20;;
51558;SDS011;61650;48.882;2.092;2022-12-18T00:38:35;32.85;;;16.95;;
51558;SDS011;61650;48.882;2.092;2022-12-18T00:41:01;35.00;;;19.00;;
51558;SDS011;61650;48.882;2.092;2022-12-18T00:43:27;34.80;;;17.77;;
51558;SDS011;61650;48.882;2.092;2022-12-18T00:45:52;32.77;;;17.57;;
51558;SDS011;61650;48.882;2.092;2022-12-18T00:48:18;36.20;;;18.50;;
51558;SDS011;61650;48.882;2.092;2022-12-18T00:50:44;33.90;;;17.80;;
51558;SDS011;61650;48.882;2.092;2022-12-18T00:53:10;37.87;;;18.30;;
51558;SDS011;61650;48.882;2.092;2022-12-18T00:55:39;35.35;;;17.27;;
51558;SDS011;61650;48.882;2.092;2022-12-18T00:58:04;32.22;;;16.50;;
51558;SDS011;61650;48.882;2.092;2022-12-18T01:00:30;36.77;;;18.30;;
51558;SDS011;61650;48.882;2.092;2022-12-18T01:02:56;36.13;;;17.90;;
51558;SDS011;61650;48.882;2.092;2022-12-18T01:05:21;32.43;;;17.70;;
51558;SDS011;61650;48.882;2.092;2022-12-18T01:07:47;36.90;;;19.17;;
51558;SDS011;61650;48.882;2.092;2022-12-18T01:10:12;37.07;;;19.20;;
51558;SDS011;61650;48.882;2.092;2022-12-18T01:12:38;33.50;;;18.63;;
51558;SDS011;61650;48.882;2.092;2022-12-18T01:15:05;34.50;;;17.80;;
51558;SDS011;61650;48.882;2.092;2022-12-18T01:17:32;35.10;;;19.80;;
51558;SDS011;61650;48.882;2.092;2022-12-18T01:19:58;32.70;;;18.55;;
51558;SDS011;61650;48.882;2.092;2022-12-18T01:22:24;37.17;;;20.33;;
51558;SDS011;61650;48.882;2.092;2022-12-18T01:24:49;37.30;;;20.97;;
51558;SDS011;61650;48.882;2.092;2022-12-18T01:27:15;38.70;;;20.70;;
51558;SDS011;61650;48.882;2.092;2022-12-18T01:29:41;38.87;;;20.53;;
51558;SDS011;61650;48.882;2.092;2022-12-18T01:32:07;37.15;;;19.30;;
51558;SDS011;61650;48.882;2.092;2022-12-18T01:34:33;37.97;;;18.17;;
51558;SDS011;61650;48.882;2.092;2022-12-18T01:37:02;35.95;;;20.02;;
51558;SDS011;61650;48.882;2.092;2022-12-18T01:39:28;39.33;;;20.95;;
51558;SDS011;61650;48.882;2.092;2022-12-18T01:41:54;40.07;;;20.57;;
51558;SDS011;61650;48.882;2.092;2022-12-18T01:50:06;35.67;;;19.38;;
51558;SDS011;61650;48.882;2.092;2022-12-18T01:52:35;34.03;;;18.23;;
51558;SDS011;61650;48.882;2.092;2022-12-18T01:55:03;34.85;;;19.35;;
51558;SDS011;61650;48.882;2.092;2022-12-18T01:57:31;36.47;;;18.55;;
51558;SDS011;61650;48.882;2.092;2022-12-18T02:00:00;35.65;;;19.60;;
51558;SDS011;61650;48.882;2.092;2022-12-18T02:02:33;37.30;;;20.85;;
51558;SDS011;61650;48.882;2.092;2022-12-18T02:04:58;33.57;;;17.73;;
51558;SDS011;61650;48.882;2.092;2022-12-18T02:07:29;34.70;;;19.70;;
51558;SDS011;61650;48.882;2.092;2022-12-18T02:10:31;35.20;;;17.98;;
51558;SDS011;61650;48.882;2.092;2022-12-18T02:18:37;37.45;;;17.80;;
51558;SDS011;61650;48.882;2.092;2022-12-18T02:26:37;27.90;;;17.33;;
51558;SDS011;61650;48.882;2.092;2022-12-18T02:29:10;30.20;;;16.70;;
51558;SDS011;61650;48.882;2.092;2022-12-18T02:31:42;35.45;;;18.92;;
51558;SDS011;61650;48.882;2.092;2022-12-18T02:34:13;32.03;;;17.70;;
51558;SDS011;61650;48.882;2.092;2022-12-18T02:36:40;31.10;;;17.48;;
51558;SDS011;61650;48.882;2.092;2022-12-18T02:39:08;29.55;;;17.35;;
51558;SDS011;61650;48.882;2.092;2022-12-18T02:41:36;29.00;;;16.00;;
51558;SDS011;61650;48.882;2.092;2022-12-18T02:44:06;32.75;;;16.33;;
51558;SDS011;61650;48.882;2.092;2022-12-18T02:46:37;33.00;;;16.98;;
51558;SDS011;61650;48.882;2.092;2022-12-18T02:49:10;33.15;;;16.73;;
51558;SDS011;61650;48.882;2.092;2022-12-18T02:54:47;29.65;;;15.98;;
51558;SDS011;61650;48.882;2.092;2022-12-18T02:57:40;27.50;;;15.55;;
51558;SDS011;61650;48.882;2.092;2022-12-18T03:00:31;28.85;;;16.48;;
51558;SDS011;61650;48.882;2.092;2022-12-18T03:03:07;38.20;;;17.00;;
51558;SDS011;61650;48.882;2.092;2022-12-18T03:05:45;33.95;;;18.13;;
51558;SDS011;61650;48.882;2.092;2022-12-18T03:08:24;41.45;;;23.23;;
51558;SDS011;61650;48.882;2.092;2022-12-18T03:14:12;40.45;;;20.55;;
51558;SDS011;61650;48.882;2.092;2022-12-18T03:16:17;34.80;;;16.80;;
51558;SDS011;61650;48.882;2.092;2022-12-18T03:18:53;35.30;;;18.42;;
51558;SDS011;61650;48.882;2.092;2022-12-18T03:21:24;33.15;;;18.20;;
51558;SDS011;61650;48.882;2.092;2022-12-18T03:23:54;39.90;;;20.35;;
51558;SDS011;61650;48.882;2.092;2022-12-18T03:26:22;28.42;;;17.35;;
51558;SDS011;61650;48.882;2.092;2022-12-18T03:28:52;33.08;;;16.98;;
51558;SDS011;61650;48.882;2.092;2022-12-18T03:31:28;37.50;;;17.50;;
51558;SDS011;61650;48.882;2.092;2022-12-18T03:34:01;26.58;;;17.80;;
51558;SDS011;61650;48.882;2.092;2022-12-18T03:36:30;29.48;;;16.60;;
51558;SDS011;61650;48.882;2.092;2022-12-18T03:38:57;27.83;;;16.10;;
51558;SDS011;61650;48.882;2.092;2022-12-18T03:41:28;32.80;;;17.87;;
51558;SDS011;61650;48.882;2.092;2022-12-18T03:46:55;28.42;;;15.13;;
51558;SDS011;61650;48.882;2.092;2022-12-18T03:49:34;27.27;;;15.75;;
51558;SDS011;61650;48.882;2.092;2022-12-18T03:52:11;31.77;;;15.90;;
51558;SDS011;61650;48.882;2.092;2022-12-18T03:54:42;31.33;;;16.20;;
51558;SDS011;61650;48.882;2.092;2022-12-18T03:57:11;32.95;;;17.70;;
51558;SDS011;61650;48.882;2.092;2022-12-18T03:59:41;28.65;;;15.18;;
51558;SDS011;61650;48.882;2.092;2022-12-18T04:02:10;33.10;;;17.13;;
51558;SDS011;61650;48.882;2.092;2022-12-18T04:04:36;36.25;;;17.48;;
51558;SDS011;61650;48.882;2.092;2022-12-18T04:07:04;26.95;;;15.70;;
51558;SDS011;61650;48.882;2.092;2022-12-18T04:09:31;33.25;;;17.15;;
51558;SDS011;61650;48.882;2.092;2022-12-18T04:11:59;34.08;;;17.23;;
51558;SDS011;61650;48.882;2.092;2022-12-18T04:14:24;32.23;;;17.23;;
51558;SDS011;61650;48.882;2.092;2022-12-18T04:16:50;30.77;;;15.80;;
51558;SDS011;61650;48.882;2.092;2022-12-18T04:19:16;26.87;;;15.13;;
51558;SDS011;61650;48.882;2.092;2022-12-18T04:21:41;33.77;;;17.50;;
51558;SDS011;61650;48.882;2.092;2022-12-18T04:24:07;36.37;;;17.30;;
51558;SDS011;61650;48.882;2.092;2022-12-18T04:26:33;28.55;;;16.55;;
51558;SDS011;61650;48.882;2.092;2022-12-18T04:28:59;30.43;;;16.50;;
51558;SDS011;61650;48.882;2.092;2022-12-18T04:31:24;27.97;;;15.67;;
51558;SDS011;61650;48.882;2.092;2022-12-18T04:33:50;26.97;;;15.40;;
51558;SDS011;61650;48.882;2.092;2022-12-18T04:36:16;26.77;;;15.30;;
51558;SDS011;61650;48.882;2.092;2022-12-18T04:38:41;29.50;;;16.70;;
51558;SDS011;61650;48.882;2.092;2022-12-18T04:41:07;30.40;;;15.77;;
51558;SDS011;61650;48.882;2.092;2022-12-18T04:43:33;28.67;;;16.33;;
51558;SDS011;61650;48.882;2.092;2022-12-18T04:46:05;27.20;;;16.30;;
51558;SDS011;61650;48.882;2.092;2022-12-18T04:48:32;28.20;;;15.70;;
51558;SDS011;61650;48.882;2.092;2022-12-18T04:50:58;28.85;;;15.43;;
51558;SDS011;61650;48.882;2.092;2022-12-18T04:53:23;28.37;;;15.97;;
51558;SDS011;61650;48.882;2.092;2022-12-18T04:55:49;25.23;;;14.00;;
51558;SDS011;61650;48.882;2.092;2022-12-18T04:58:15;28.33;;;15.23;;
51558;SDS011;61650;48.882;2.092;2022-12-18T05:00:40;27.20;;;16.13;;
51558;SDS011;61650;48.882;2.092;2022-12-18T05:03:06;28.07;;;16.10;;
51558;SDS011;61650;48.882;2.092;2022-12-18T05:05:34;23.77;;;15.00;;
51558;SDS011;61650;48.882;2.092;2022-12-18T05:08:00;30.15;;;15.68;;
51558;SDS011;61650;48.882;2.092;2022-12-18T05:10:25;29.97;;;15.83;;
51558;SDS011;61650;48.882;2.092;2022-12-18T05:12:51;28.40;;;15.10;;
51558;SDS011;61650;48.882;2.092;2022-12-18T05:15:26;31.48;;;16.10;;
51558;SDS011;61650;48.882;2.092;2022-12-18T05:17:56;26.80;;;15.43;;
51558;SDS011;61650;48.882;2.092;2022-12-18T05:20:23;28.05;;;15.15;;
51558;SDS011;61650;48.882;2.092;2022-12-18T05:22:49;25.73;;;15.25;;
51558;SDS011;61650;48.882;2.092;2022-12-18T05:25:15;28.75;;;15.63;;
51558;SDS011;61650;48.882;2.092;2022-12-18T05:27:41;24.40;;;13.53;;
51558;SDS011;61650;48.882;2.092;2022-12-18T05:30:06;26.80;;;15.63;;
51558;SDS011;61650;48.882;2.092;2022-12-18T05:32:33;27.55;;;14.77;;
51558;SDS011;61650;48.882;2.092;2022-12-18T05:34:58;26.77;;;15.70;;
51558;SDS011;61650;48.882;2.092;2022-12-18T05:37:24;25.87;;;13.90;;
51558;SDS011;61650;48.882;2.092;2022-12-18T05:39:50;28.10;;;15.40;;
51558;SDS011;61650;48.882;2.092;2022-12-18T05:42:15;24.47;;;14.20;;
51558;SDS011;61650;48.882;2.092;2022-12-18T05:44:41;25.93;;;15.50;;
51558;SDS011;61650;48.882;2.092;2022-12-18T05:47:07;27.08;;;15.65;;
51558;SDS011;61650;48.882;2.092;2022-12-18T05:49:33;25.47;;;15.30;;
51558;SDS011;61650;48.882;2.092;2022-12-18T05:51:59;28.37;;;14.80;;
51558;SDS011;61650;48.882;2.092;2022-12-18T05:54:26;25.50;;;14.47;;
51558;SDS011;61650;48.882;2.092;2022-12-18T05:56:52;23.23;;;14.27;;
51558;SDS011;61650;48.882;2.092;2022-12-18T05:59:18;24.98;;;14.40;;
51558;SDS011;61650;48.882;2.092;2022-12-18T06:01:44;24.53;;;14.30;;
51558;SDS011;61650;48.882;2.092;2022-12-18T06:04:10;25.10;;;14.65;;
51558;SDS011;61650;48.882;2.092;2022-12-18T06:06:36;25.87;;;13.80;;
51558;SDS011;61650;48.882;2.092;2022-12-18T06:09:03;29.80;;;15.10;;
51558;SDS011;61650;48.882;2.092;2022-12-18T06:11:34;25.90;;;14.95;;
51558;SDS011;61650;48.882;2.092;2022-12-18T06:14:02;24.98;;;14.50;;
51558;SDS011;61650;48.882;2.092;2022-12-18T06:16:29;28.83;;;15.00;;
51558;SDS011;61650;48.882;2.092;2022-12-18T06:18:56;27.38;;;15.85;;
51558;SDS011;61650;48.882;2.092;2022-12-18T06:21:22;27.75;;;15.23;;
51558;SDS011;61650;48.882;2.092;2022-12-18T06:23:48;29.17;;;15.97;;
51558;SDS011;61650;48.882;2.092;2022-12-18T06:26:13;28.10;;;15.00;;
51558;SDS011;61650;48.882;2.092;2022-12-18T06:28:40;27.58;;;15.93;;
51558;SDS011;61650;48.882;2.092;2022-12-18T06:31:06;24.93;;;15.00;;
51558;SDS011;61650;48.882;2.092;2022-12-18T06:33:32;28.98;;;16.23;;
51558;SDS011;61650;48.882;2.092;2022-12-18T06:36:03;26.73;;;16.38;;
51558;SDS011;61650;48.882;2.092;2022-12-18T06:38:31;27.67;;;15.98;;
51558;SDS011;61650;48.882;2.092;2022-12-18T06:40:58;24.05;;;14.88;;
51558;SDS011;61650;48.882;2.092;2022-12-18T06:43:24;29.27;;;15.07;;
51558;SDS011;61650;48.882;2.092;2022-12-18T06:45:49;25.73;;;15.90;;
51558;SDS011;61650;48.882;2.092;2022-12-18T06:48:18;30.35;;;15.98;;
51558;SDS011;61650;48.882;2.092;2022-12-18T06:50:44;25.17;;;15.15;;
51558;SDS011;61650;48.882;2.092;2022-12-18T06:53:10;31.17;;;16.70;;
51558;SDS011;61650;48.882;2.092;2022-12-18T06:55:36;26.13;;;15.00;;
51558;SDS011;61650;48.882;2.092;2022-12-18T06:58:02;26.97;;;14.83;;
51558;SDS011;61650;48.882;2.092;2022-12-18T07:00:28;25.97;;;14.60;;
51558;SDS011;61650;48.882;2.092;2022-12-18T07:02:53;26.80;;;16.07;;
51558;SDS011;61650;48.882;2.092;2022-12-18T07:05:19;27.77;;;15.97;;
51558;SDS011;61650;48.882;2.092;2022-12-18T07:07:44;27.50;;;15.70;;
51558;SDS011;61650;48.882;2.092;2022-12-18T07:10:10;22.37;;;13.17;;
51558;SDS011;61650;48.882;2.092;2022-12-18T07:12:35;28.97;;;15.60;;
51558;SDS011;61650;48.882;2.092;2022-12-18T07:15:01;21.70;;;13.83;;
51558;SDS011;61650;48.882;2.092;2022-12-18T07:17:27;26.80;;;14.48;;
51558;SDS011;61650;48.882;2.092;2022-12-18T07:19:54;24.05;;;15.25;;
51558;SDS011;61650;48.882;2.092;2022-12-18T07:22:20;28.67;;;15.23;;
51558;SDS011;61650;48.882;2.092;2022-12-18T07:24:45;26.73;;;14.87;;
51558;SDS011;61650;48.882;2.092;2022-12-18T07:27:11;26.30;;;15.20;;
51558;SDS011;61650;48.882;2.092;2022-12-18T07:29:36;26.90;;;15.53;;
51558;SDS011;61650;48.882;2.092;2022-12-18T07:32:02;31.50;;;14.97;;
51558;SDS011;61650;48.882;2.092;2022-12-18T07:34:28;23.87;;;14.20;;
51558;SDS011;61650;48.882;2.092;2022-12-18T07:36:53;24.50;;;15.27;;
51558;SDS011;61650;48.882;2.092;2022-12-18T07:39:19;30.43;;;15.87;;
51558;SDS011;61650;48.882;2.092;2022-12-18T07:41:45;28.43;;;15.87;;
51558;SDS011;61650;48.882;2.092;2022-12-18T07:44:30;22.58;;;15.90;;
51558;SDS011;61650;48.882;2.092;2022-12-18T07:46:56;29.00;;;14.93;;
51558;SDS011;61650;48.882;2.092;2022-12-18T07:49:21;25.70;;;14.83;;
51558;SDS011;61650;48.882;2.092;2022-12-18T07:51:47;25.20;;;14.73;;
51558;SDS011;61650;48.882;2.092;2022-12-18T07:54:14;28.55;;;15.55;;
51558;SDS011;61650;48.882;2.092;2022-12-18T07:56:39;29.97;;;16.13;;
51558;SDS011;61650;48.882;2.092;2022-12-18T07:59:05;30.70;;;16.97;;
51558;SDS011;61650;48.882;2.092;2022-12-18T08:01:31;29.00;;;15.90;;
51558;SDS011;61650;48.882;2.092;2022-12-18T08:03:57;28.40;;;15.35;;
51558;SDS011;61650;48.882;2.092;2022-12-18T08:06:23;28.37;;;14.67;;
51558;SDS011;61650;48.882;2.092;2022-12-18T08:08:50;28.97;;;15.80;;
51558;SDS011;61650;48.882;2.092;2022-12-18T08:11:20;27.85;;;16.20;;
51558;SDS011;61650;48.882;2.092;2022-12-18T08:13:46;29.50;;;18.02;;
51558;SDS011;61650;48.882;2.092;2022-12-18T08:16:11;29.30;;;16.63;;
51558;SDS011;61650;48.882;2.092;2022-12-18T08:18:37;29.00;;;16.33;;
51558;SDS011;61650;48.882;2.092;2022-12-18T08:21:09;29.63;;;15.70;;
51558;SDS011;61650;48.882;2.092;2022-12-18T08:23:48;27.98;;;17.75;;
51558;SDS011;61650;48.882;2.092;2022-12-18T08:26:15;28.35;;;16.52;;
51558;SDS011;61650;48.882;2.092;2022-12-18T08:28:41;27.77;;;17.15;;
51558;SDS011;61650;48.882;2.092;2022-12-18T08:31:08;32.08;;;18.77;;
51558;SDS011;61650;48.882;2.092;2022-12-18T08:33:34;33.35;;;19.13;;
51558;SDS011;61650;48.882;2.092;2022-12-18T08:36:01;27.38;;;15.80;;
51558;SDS011;61650;48.882;2.092;2022-12-18T08:38:28;30.52;;;16.55;;
51558;SDS011;61650;48.882;2.092;2022-12-18T08:41:15;36.00;;;18.40;;
51558;SDS011;61650;48.882;2.092;2022-12-18T08:43:41;30.40;;;15.73;;
51558;SDS011;61650;48.882;2.092;2022-12-18T08:46:26;29.67;;;16.77;;
51558;SDS011;61650;48.882;2.092;2022-12-18T08:48:52;31.45;;;19.15;;
51558;SDS011;61650;48.882;2.092;2022-12-18T08:51:20;31.50;;;17.40;;
51558;SDS011;61650;48.882;2.092;2022-12-18T08:53:46;31.13;;;17.50;;
51558;SDS011;61650;48.882;2.092;2022-12-18T08:56:12;30.47;;;17.00;;
51558;SDS011;61650;48.882;2.092;2022-12-18T08:58:37;30.33;;;17.50;;
51558;SDS011;61650;48.882;2.092;2022-12-18T09:01:04;25.23;;;16.90;;
51558;SDS011;61650;48.882;2.092;2022-12-18T09:03:32;27.95;;;16.88;;
51558;SDS011;61650;48.882;2.092;2022-12-18T09:05:58;32.42;;;17.05;;
51558;SDS011;61650;48.882;2.092;2022-12-18T09:08:24;31.35;;;17.00;;
51558;SDS011;61650;48.882;2.092;2022-12-18T09:10:51;32.15;;;18.52;;
51558;SDS011;61650;48.882;2.092;2022-12-18T09:13:16;31.03;;;18.30;;
51558;SDS011;61650;48.882;2.092;2022-12-18T09:15:46;29.35;;;18.05;;
51558;SDS011;61650;48.882;2.092;2022-12-18T09:18:14;27.35;;;17.23;;
51558;SDS011;61650;48.882;2.092;2022-12-18T09:20:41;30.23;;;17.25;;
51558;SDS011;61650;48.882;2.092;2022-12-18T09:23:07;31.60;;;18.30;;
51558;SDS011;61650;48.882;2.092;2022-12-18T09:25:34;28.95;;;17.73;;
51558;SDS011;61650;48.882;2.092;2022-12-18T09:28:04;34.13;;;17.73;;
51558;SDS011;61650;48.882;2.092;2022-12-18T09:30:34;27.20;;;18.23;;
51558;SDS011;61650;48.882;2.092;2022-12-18T09:33:03;32.60;;;18.25;;
51558;SDS011;61650;48.882;2.092;2022-12-18T09:35:28;31.20;;;18.53;;
51558;SDS011;61650;48.882;2.092;2022-12-18T09:37:54;34.30;;;18.77;;
51558;SDS011;61650;48.882;2.092;2022-12-18T09:40:21;31.10;;;19.33;;
51558;SDS011;61650;48.882;2.092;2022-12-18T09:42:57;30.38;;;18.20;;
51558;SDS011;61650;48.882;2.092;2022-12-18T09:45:28;32.65;;;18.45;;
51558;SDS011;61650;48.882;2.092;2022-12-18T09:47:59;36.75;;;19.38;;
51558;SDS011;61650;48.882;2.092;2022-12-18T09:50:35;27.83;;;16.80;;
51558;SDS011;61650;48.882;2.092;2022-12-18T09:53:05;28.40;;;18.65;;
51558;SDS011;61650;48.882;2.092;2022-12-18T09:55:38;32.78;;;19.05;;
51558;SDS011;61650;48.882;2.092;2022-12-18T10:00:34;28.27;;;17.95;;
51558;SDS011;61650;48.882;2.092;2022-12-18T10:03:08;32.63;;;17.97;;
51558;SDS011;61650;48.882;2.092;2022-12-18T10:13:47;28.20;;;16.02;;
51558;SDS011;61650;48.882;2.092;2022-12-18T10:16:21;25.35;;;16.85;;
51558;SDS011;61650;48.882;2.092;2022-12-18T10:19:01;27.25;;;17.45;;
51558;SDS011;61650;48.882;2.092;2022-12-18T10:26:43;30.27;;;18.23;;
51558;SDS011;61650;48.882;2.092;2022-12-18T10:29:10;32.15;;;17.98;;
51558;SDS011;61650;48.882;2.092;2022-12-18T10:31:38;27.45;;;16.30;;
51558;SDS011;61650;48.882;2.092;2022-12-18T10:34:03;25.10;;;16.67;;
51558;SDS011;61650;48.882;2.092;2022-12-18T10:36:32;29.05;;;17.80;;
51558;SDS011;61650;48.882;2.092;2022-12-18T10:39:14;25.87;;;17.50;;
51558;SDS011;61650;48.882;2.092;2022-12-18T10:41:43;29.00;;;16.50;;
51558;SDS011;61650;48.882;2.092;2022-12-18T10:44:11;25.90;;;17.50;;
51558;SDS011;61650;48.882;2.092;2022-12-18T10:46:40;27.38;;;16.88;;
51558;SDS011;61650;48.882;2.092;2022-12-18T10:49:17;27.67;;;16.43;;
51558;SDS011;61650;48.882;2.092;2022-12-18T10:52:15;29.15;;;17.23;;
51558;SDS011;61650;48.882;2.092;2022-12-18T10:55:03;28.63;;;17.42;;
51558;SDS011;61650;48.882;2.092;2022-12-18T10:57:31;29.27;;;17.27;;
51558;SDS011;61650;48.882;2.092;2022-12-18T11:00:00;32.10;;;18.15;;
51558;SDS011;61650;48.882;2.092;2022-12-18T11:02:45;24.88;;;16.63;;
51558;SDS011;61650;48.882;2.092;2022-12-18T11:05:30;30.90;;;18.00;;
51558;SDS011;61650;48.882;2.092;2022-12-18T11:08:02;32.58;;;18.05;;
51558;SDS011;61650;48.882;2.092;2022-12-18T11:10:30;27.48;;;17.17;;
51558;SDS011;61650;48.882;2.092;2022-12-18T11:13:09;29.75;;;17.80;;
51558;SDS011;61650;48.882;2.092;2022-12-18T11:15:42;35.45;;;20.25;;
51558;SDS011;61650;48.882;2.092;2022-12-18T11:18:15;28.02;;;18.20;;
51558;SDS011;61650;48.882;2.092;2022-12-18T11:20:41;30.75;;;18.17;;
51558;SDS011;61650;48.882;2.092;2022-12-18T11:23:11;28.20;;;18.70;;
51558;SDS011;61650;48.882;2.092;2022-12-18T11:25:38;29.92;;;17.20;;
51558;SDS011;61650;48.882;2.092;2022-12-18T11:34:02;31.80;;;19.27;;
51558;SDS011;61650;48.882;2.092;2022-12-18T11:36:34;29.30;;;18.30;;
51558;SDS011;61650;48.882;2.092;2022-12-18T11:39:11;29.33;;;19.33;;
51558;SDS011;61650;48.882;2.092;2022-12-18T11:42:04;30.67;;;19.00;;
51558;SDS011;61650;48.882;2.092;2022-12-18T11:44:55;29.00;;;18.52;;
51558;SDS011;61650;48.882;2.092;2022-12-18T11:50:18;29.90;;;16.55;;
51558;SDS011;61650;48.882;2.092;2022-12-18T11:52:44;29.00;;;18.63;;
51558;SDS011;61650;48.882;2.092;2022-12-18T11:55:11;28.17;;;18.90;;
51558;SDS011;61650;48.882;2.092;2022-12-18T12:00:36;29.58;;;19.15;;
51558;SDS011;61650;48.882;2.092;2022-12-18T12:06:21;26.48;;;17.80;;
51558;SDS011;61650;48.882;2.092;2022-12-18T12:09:07;31.40;;;20.23;;
51558;SDS011;61650;48.882;2.092;2022-12-18T12:20:19;31.17;;;20.20;;
51558;SDS011;61650;48.882;2.092;2022-12-18T12:28:47;28.92;;;19.55;;
51558;SDS011;61650;48.882;2.092;2022-12-18T12:34:25;28.83;;;19.42;;
51558;SDS011;61650;48.882;2.092;2022-12-18T12:37:07;31.23;;;19.13;;
51558;SDS011;61650;48.882;2.092;2022-12-18T12:39:36;30.80;;;20.48;;
51558;SDS011;61650;48.882;2.092;2022-12-18T12:42:05;33.22;;;20.77;;
51558;SDS011;61650;48.882;2.092;2022-12-18T12:45:13;36.05;;;22.08;;
51558;SDS011;61650;48.882;2.092;2022-12-18T12:47:58;32.50;;;21.60;;
51558;SDS011;61650;48.882;2.092;2022-12-18T12:50:29;33.17;;;21.73;;
51558;SDS011;61650;48.882;2.092;2022-12-18T12:53:11;29.77;;;21.20;;
51558;SDS011;61650;48.882;2.092;2022-12-18T12:56:01;34.13;;;21.95;;
51558;SDS011;61650;48.882;2.092;2022-12-18T12:58:37;30.38;;;19.92;;
51558;SDS011;61650;48.882;2.092;2022-12-18T13:01:13;37.03;;;19.95;;
51558;SDS011;61650;48.882;2.092;2022-12-18T13:04:27;33.38;;;20.67;;
51558;SDS011;61650;48.882;2.092;2022-12-18T13:09:32;34.90;;;24.85;;
51558;SDS011;61650;48.882;2.092;2022-12-18T13:12:03;36.10;;;23.70;;
51558;SDS011;61650;48.882;2.092;2022-12-18T13:14:55;36.95;;;24.55;;
51558;SDS011;61650;48.882;2.092;2022-12-18T13:17:39;39.38;;;23.88;;
51558;SDS011;61650;48.882;2.092;2022-12-18T13:22:37;36.90;;;24.37;;
51558;SDS011;61650;48.882;2.092;2022-12-18T13:28:15;33.25;;;21.30;;
51558;SDS011;61650;48.882;2.092;2022-12-18T13:35:41;26.50;;;17.98;;
51558;SDS011;61650;48.882;2.092;2022-12-18T13:38:33;32.45;;;19.02;;
51558;SDS011;61650;48.882;2.092;2022-12-18T13:41:01;28.77;;;18.70;;
51558;SDS011;61650;48.882;2.092;2022-12-18T13:48:55;33.67;;;21.90;;
51558;SDS011;61650;48.882;2.092;2022-12-18T13:51:24;31.13;;;20.65;;
51558;SDS011;61650;48.882;2.092;2022-12-18T13:53:52;31.33;;;20.33;;
51558;SDS011;61650;48.882;2.092;2022-12-18T13:56:26;30.42;;;20.42;;
51558;SDS011;61650;48.882;2.092;2022-12-18T14:01:54;32.72;;;20.73;;
51558;SDS011;61650;48.882;2.092;2022-12-18T14:04:28;35.22;;;19.98;;
51558;SDS011;61650;48.882;2.092;2022-12-18T14:06:57;30.85;;;21.38;;
51558;SDS011;61650;48.882;2.092;2022-12-18T14:09:28;29.35;;;19.15;;
51558;SDS011;61650;48.882;2.092;2022-12-18T14:11:56;28.50;;;19.60;;
51558;SDS011;61650;48.882;2.092;2022-12-18T14:14:42;30.83;;;20.77;;
51558;SDS011;61650;48.882;2.092;2022-12-18T14:17:10;33.10;;;21.52;;
51558;SDS011;61650;48.882;2.092;2022-12-18T14:19:37;30.55;;;20.85;;
51558;SDS011;61650;48.882;2.092;2022-12-18T14:22:11;31.42;;;20.70;;
51558;SDS011;61650;48.882;2.092;2022-12-18T14:25:55;31.52;;;21.63;;
51558;SDS011;61650;48.882;2.092;2022-12-18T14:27:52;34.38;;;24.27;;
51558;SDS011;61650;48.882;2.092;2022-12-18T14:30:29;37.25;;;25.55;;
51558;SDS011;61650;48.882;2.092;2022-12-18T14:33:02;38.20;;;25.23;;
51558;SDS011;61650;48.882;2.092;2022-12-18T14:35:31;37.38;;;24.65;;
51558;SDS011;61650;48.882;2.092;2022-12-18T14:38:11;38.95;;;25.10;;
51558;SDS011;61650;48.882;2.092;2022-12-18T14:40:43;39.08;;;26.63;;
51558;SDS011;61650;48.882;2.092;2022-12-18T14:43:12;38.30;;;25.17;;
51558;SDS011;61650;48.882;2.092;2022-12-18T14:45:39;40.10;;;26.40;;
51558;SDS011;61650;48.882;2.092;2022-12-18T14:48:19;41.35;;;25.80;;
51558;SDS011;61650;48.882;2.092;2022-12-18T14:50:57;43.70;;;27.45;;
51558;SDS011;61650;48.882;2.092;2022-12-18T14:56:02;38.45;;;25.75;;
51558;SDS011;61650;48.882;2.092;2022-12-18T14:58:37;38.65;;;25.70;;
51558;SDS011;61650;48.882;2.092;2022-12-18T15:01:03;37.40;;;26.30;;
51558;SDS011;61650;48.882;2.092;2022-12-18T15:03:28;33.77;;;24.57;;
51558;SDS011;61650;48.882;2.092;2022-12-18T15:05:54;33.37;;;22.57;;
51558;SDS011;61650;48.882;2.092;2022-12-18T15:08:30;37.53;;;25.47;;
51558;SDS011;61650;48.882;2.092;2022-12-18T15:11:01;37.38;;;24.63;;
51558;SDS011;61650;48.882;2.092;2022-12-18T15:13:27;36.45;;;24.63;;
51558;SDS011;61650;48.882;2.092;2022-12-18T15:15:54;38.60;;;24.00;;
51558;SDS011;61650;48.882;2.092;2022-12-18T15:18:32;33.50;;;22.15;;
51558;SDS011;61650;48.882;2.092;2022-12-18T15:21:07;31.77;;;21.88;;
51558;SDS011;61650;48.882;2.092;2022-12-18T15:23:44;33.28;;;21.35;;
51558;SDS011;61650;48.882;2.092;2022-12-18T15:26:18;32.88;;;22.15;;
51558;SDS011;61650;48.882;2.092;2022-12-18T15:28:55;36.05;;;22.67;;
51558;SDS011;61650;48.882;2.092;2022-12-18T15:36:22;33.00;;;22.43;;
51558;SDS011;61650;48.882;2.092;2022-12-18T15:38:48;35.78;;;23.60;;
51558;SDS011;61650;48.882;2.092;2022-12-18T15:41:16;31.50;;;22.02;;
51558;SDS011;61650;48.882;2.092;2022-12-18T15:43:44;33.00;;;24.45;;
51558;SDS011;61650;48.882;2.092;2022-12-18T15:46:12;32.08;;;23.52;;
51558;SDS011;61650;48.882;2.092;2022-12-18T15:48:43;35.97;;;23.17;;
51558;SDS011;61650;48.882;2.092;2022-12-18T15:51:20;32.63;;;22.63;;
51558;SDS011;61650;48.882;2.092;2022-12-18T15:53:54;36.00;;;23.85;;
51558;SDS011;61650;48.882;2.092;2022-12-18T15:56:23;36.65;;;24.52;;
51558;SDS011;61650;48.882;2.092;2022-12-18T15:59:17;38.28;;;24.35;;
51558;SDS011;61650;48.882;2.092;2022-12-18T16:01:45;29.52;;;21.77;;
51558;SDS011;61650;48.882;2.092;2022-12-18T16:04:13;29.92;;;20.63;;
51558;SDS011;61650;48.882;2.092;2022-12-18T16:06:40;30.58;;;20.48;;
51558;SDS011;61650;48.882;2.092;2022-12-18T16:09:06;30.88;;;20.23;;
51558;SDS011;61650;48.882;2.092;2022-12-18T16:11:33;24.23;;;17.15;;
51558;SDS011;61650;48.882;2.092;2022-12-18T16:16:42;28.95;;;20.60;;
51558;SDS011;61650;48.882;2.092;2022-12-18T16:19:08;29.00;;;20.23;;
51558;SDS011;61650;48.882;2.092;2022-12-18T16:21:33;35.07;;;20.80;;
51558;SDS011;61650;48.882;2.092;2022-12-18T16:23:59;32.30;;;20.90;;